Etusivu
METAR-TAF:

METAR-TAF

Lentoasemat :

Bückeburg, Saksa

Leveyspiiri: 52-17N, Pituuspiiri: 009-05E, korkeus merenpinnasta: 70 m

Tämänhetkinen sää

Tämä raportti tehtiin 43 minuuttia sitten, kello 04.20 UTC
Tuuli 9 kn etelästä
Lämpötila 6°C
Kosteus 87%
Ilmanpaine 997 hPa
Näkyvyys: 8000 m

METAR: ETHB 290420Z AUTO 18009KT 8000 // ////// 06/04 Q0997 ///

Aika: 06:03 (05:03 UTC)

Sääennuste

Tämä raportti tehtiin 18 tuntia ja 12 minuuttia sitten, kello 10.51 UTC
Ennuste voimassa 28. päivästä klo 09 UTC - 28. päivään klo 18 UTC
Tuuli 12 kn lännestä/lounaasta puuskistuen 22 kn:hen
Näkyvyys 10 km tai enemmän
Hajanaisia pilviä 2500 ft:n korkeudessa
Tulossa
28. päivästä klo 16 UTC - 28. päivään klo 18 UTC
Tuuli 10 kn etelästä
Näkyvyys: 1115 m
Hajanaisia pilviä 1500 ft:n korkeudessa
Hajonneita pilviä 2500 ft:n korkeudessa

TAF: ETHB 281051Z 2809/2818 24012G22KT 9999 NSW SCT025 BECMG 2816/2818 19010KT 9999 NSW SCT015 BKN025 CANCEL 1115 BY ETHB

Säähavainnot ja -ennusteet yli 4000 lentoasemalta (METAR- ja TAF-raportit).

Käytössä olevat sääasemat on merkitty karttaan keltaisilla ja punaisilla pisteillä.

Aseta hiiri pisteen päälle nähdäksesi sääaseman nimen.

Klikkaa sitten nähdäksesi säähavainnot ja -ennusteet.

Kartan vaihtaminen: klikkaa mustalla rastilla varustettuja vihreitä pisteitä, niin voit zoomata sisään; viivalla varustettua vihreää pistettä, niin voit zoomata ulos tai vihreitä nuolia, niin pääset viereisille kartoille.


METAR-TAF: